sensor_id;sensor_type;location;lat;lon;timestamp;P1;durP1;ratioP1;P2;durP2;ratioP2
10761;SDS011;5433;50.862;4.320;2023-03-23T00:01:17;5.47;;;3.70;;
10761;SDS011;5433;50.862;4.320;2023-03-23T00:03:47;4.70;;;3.60;;
10761;SDS011;5433;50.862;4.320;2023-03-23T00:06:14;4.85;;;3.63;;
10761;SDS011;5433;50.862;4.320;2023-03-23T00:08:49;5.07;;;4.10;;
10761;SDS011;5433;50.862;4.320;2023-03-23T00:11:21;5.88;;;4.55;;
10761;SDS011;5433;50.862;4.320;2023-03-23T00:13:49;9.75;;;5.72;;
10761;SDS011;5433;50.862;4.320;2023-03-23T00:16:19;10.75;;;6.32;;
10761;SDS011;5433;50.862;4.320;2023-03-23T00:18:49;9.82;;;5.75;;
10761;SDS011;5433;50.862;4.320;2023-03-23T00:21:19;7.53;;;5.30;;
10761;SDS011;5433;50.862;4.320;2023-03-23T00:23:50;6.55;;;5.10;;
10761;SDS011;5433;50.862;4.320;2023-03-23T00:26:16;6.80;;;5.20;;
10761;SDS011;5433;50.862;4.320;2023-03-23T00:28:43;7.07;;;4.60;;
10761;SDS011;5433;50.862;4.320;2023-03-23T00:31:11;5.70;;;4.88;;
10761;SDS011;5433;50.862;4.320;2023-03-23T00:33:37;5.75;;;4.50;;
10761;SDS011;5433;50.862;4.320;2023-03-23T00:36:06;5.57;;;4.50;;
10761;SDS011;5433;50.862;4.320;2023-03-23T00:38:33;5.10;;;4.20;;
10761;SDS011;5433;50.862;4.320;2023-03-23T00:41:00;5.03;;;4.18;;
10761;SDS011;5433;50.862;4.320;2023-03-23T00:43:29;5.85;;;4.53;;
10761;SDS011;5433;50.862;4.320;2023-03-23T00:45:56;5.30;;;4.07;;
10761;SDS011;5433;50.862;4.320;2023-03-23T00:48:25;5.57;;;4.18;;
10761;SDS011;5433;50.862;4.320;2023-03-23T00:50:52;5.65;;;4.20;;
10761;SDS011;5433;50.862;4.320;2023-03-23T00:53:18;5.05;;;4.07;;
10761;SDS011;5433;50.862;4.320;2023-03-23T00:55:45;6.00;;;3.70;;
10761;SDS011;5433;50.862;4.320;2023-03-23T00:58:12;6.22;;;4.50;;
10761;SDS011;5433;50.862;4.320;2023-03-23T01:00:39;5.65;;;4.00;;
10761;SDS011;5433;50.862;4.320;2023-03-23T01:03:06;5.60;;;4.03;;
10761;SDS011;5433;50.862;4.320;2023-03-23T01:05:36;5.07;;;4.20;;
10761;SDS011;5433;50.862;4.320;2023-03-23T01:08:02;4.78;;;3.95;;
10761;SDS011;5433;50.862;4.320;2023-03-23T01:10:29;5.00;;;4.20;;
10761;SDS011;5433;50.862;4.320;2023-03-23T01:12:57;5.80;;;4.57;;
10761;SDS011;5433;50.862;4.320;2023-03-23T01:15:23;5.10;;;4.00;;
10761;SDS011;5433;50.862;4.320;2023-03-23T01:17:49;4.70;;;4.13;;
10761;SDS011;5433;50.862;4.320;2023-03-23T01:20:15;5.13;;;3.97;;
10761;SDS011;5433;50.862;4.320;2023-03-23T01:22:42;5.38;;;4.07;;
10761;SDS011;5433;50.862;4.320;2023-03-23T01:25:10;5.78;;;4.82;;
10761;SDS011;5433;50.862;4.320;2023-03-23T01:27:36;4.55;;;4.15;;
10761;SDS011;5433;50.862;4.320;2023-03-23T01:30:03;5.32;;;4.50;;
10761;SDS011;5433;50.862;4.320;2023-03-23T01:32:29;5.78;;;4.80;;
10761;SDS011;5433;50.862;4.320;2023-03-23T01:34:55;5.40;;;4.10;;
10761;SDS011;5433;50.862;4.320;2023-03-23T01:37:21;6.25;;;4.22;;
10761;SDS011;5433;50.862;4.320;2023-03-23T01:39:54;5.60;;;3.97;;
10761;SDS011;5433;50.862;4.320;2023-03-23T01:42:21;4.30;;;3.72;;
10761;SDS011;5433;50.862;4.320;2023-03-23T01:47:13;5.95;;;4.00;;
10761;SDS011;5433;50.862;4.320;2023-03-23T01:49:41;4.72;;;3.80;;
10761;SDS011;5433;50.862;4.320;2023-03-23T01:52:16;5.07;;;3.80;;
10761;SDS011;5433;50.862;4.320;2023-03-23T01:54:46;4.80;;;4.10;;
10761;SDS011;5433;50.862;4.320;2023-03-23T01:57:14;4.20;;;3.75;;
10761;SDS011;5433;50.862;4.320;2023-03-23T01:59:42;5.57;;;3.85;;
10761;SDS011;5433;50.862;4.320;2023-03-23T02:02:10;6.00;;;3.85;;
10761;SDS011;5433;50.862;4.320;2023-03-23T02:04:36;4.50;;;3.60;;
10761;SDS011;5433;50.862;4.320;2023-03-23T02:07:03;5.72;;;3.30;;
10761;SDS011;5433;50.862;4.320;2023-03-23T02:09:29;3.83;;;3.05;;
10761;SDS011;5433;50.862;4.320;2023-03-23T02:11:56;5.88;;;2.95;;
10761;SDS011;5433;50.862;4.320;2023-03-23T02:14:23;3.00;;;2.70;;
10761;SDS011;5433;50.862;4.320;2023-03-23T02:16:54;3.92;;;2.70;;
10761;SDS011;5433;50.862;4.320;2023-03-23T02:19:26;2.40;;;2.20;;
10761;SDS011;5433;50.862;4.320;2023-03-23T02:27:23;2.30;;;2.10;;
10761;SDS011;5433;50.862;4.320;2023-03-23T02:35:59;3.03;;;1.80;;
10761;SDS011;5433;50.862;4.320;2023-03-23T02:38:31;3.47;;;1.80;;
10761;SDS011;5433;50.862;4.320;2023-03-23T02:40:59;4.68;;;1.80;;
10761;SDS011;5433;50.862;4.320;2023-03-23T02:43:28;3.95;;;1.80;;
10761;SDS011;5433;50.862;4.320;2023-03-23T02:45:56;3.38;;;1.65;;
10761;SDS011;5433;50.862;4.320;2023-03-23T02:48:24;2.58;;;1.40;;
10761;SDS011;5433;50.862;4.320;2023-03-23T02:50:51;2.50;;;1.40;;
10761;SDS011;5433;50.862;4.320;2023-03-23T02:53:19;2.38;;;1.63;;
10761;SDS011;5433;50.862;4.320;2023-03-23T02:55:46;3.15;;;1.45;;
10761;SDS011;5433;50.862;4.320;2023-03-23T02:58:13;3.05;;;1.50;;
10761;SDS011;5433;50.862;4.320;2023-03-23T03:00:40;2.47;;;1.35;;
10761;SDS011;5433;50.862;4.320;2023-03-23T03:03:08;4.30;;;1.52;;
10761;SDS011;5433;50.862;4.320;2023-03-23T03:13:42;2.53;;;1.45;;
10761;SDS011;5433;50.862;4.320;2023-03-23T03:18:46;2.50;;;1.30;;
10761;SDS011;5433;50.862;4.320;2023-03-23T03:21:14;2.53;;;1.27;;
10761;SDS011;5433;50.862;4.320;2023-03-23T03:23:43;3.20;;;1.50;;
10761;SDS011;5433;50.862;4.320;2023-03-23T03:26:11;1.80;;;1.27;;
10761;SDS011;5433;50.862;4.320;2023-03-23T03:28:42;2.70;;;1.30;;
10761;SDS011;5433;50.862;4.320;2023-03-23T03:31:09;2.88;;;1.30;;
10761;SDS011;5433;50.862;4.320;2023-03-23T03:33:35;2.17;;;1.20;;
10761;SDS011;5433;50.862;4.320;2023-03-23T03:36:02;4.70;;;1.50;;
10761;SDS011;5433;50.862;4.320;2023-03-23T03:38:29;1.90;;;1.63;;
10761;SDS011;5433;50.862;4.320;2023-03-23T03:40:55;2.45;;;1.30;;
10761;SDS011;5433;50.862;4.320;2023-03-23T03:43:22;2.75;;;1.42;;
10761;SDS011;5433;50.862;4.320;2023-03-23T03:45:48;3.20;;;1.38;;
10761;SDS011;5433;50.862;4.320;2023-03-23T03:48:14;6.00;;;1.63;;
10761;SDS011;5433;50.862;4.320;2023-03-23T03:50:40;2.90;;;1.40;;
10761;SDS011;5433;50.862;4.320;2023-03-23T03:53:06;3.65;;;1.55;;
10761;SDS011;5433;50.862;4.320;2023-03-23T03:55:32;3.55;;;1.80;;
10761;SDS011;5433;50.862;4.320;2023-03-23T03:58:03;2.33;;;1.23;;
10761;SDS011;5433;50.862;4.320;2023-03-23T04:00:29;3.97;;;1.77;;
10761;SDS011;5433;50.862;4.320;2023-03-23T04:02:56;3.60;;;1.40;;
10761;SDS011;5433;50.862;4.320;2023-03-23T04:05:24;4.68;;;1.48;;
10761;SDS011;5433;50.862;4.320;2023-03-23T04:07:53;3.92;;;1.88;;
10761;SDS011;5433;50.862;4.320;2023-03-23T04:10:26;4.70;;;1.45;;
10761;SDS011;5433;50.862;4.320;2023-03-23T04:12:52;2.97;;;1.70;;
10761;SDS011;5433;50.862;4.320;2023-03-23T04:15:18;7.53;;;1.80;;
10761;SDS011;5433;50.862;4.320;2023-03-23T04:17:44;3.42;;;1.50;;
10761;SDS011;5433;50.862;4.320;2023-03-23T04:20:11;4.85;;;1.55;;
10761;SDS011;5433;50.862;4.320;2023-03-23T04:22:43;3.83;;;1.63;;
10761;SDS011;5433;50.862;4.320;2023-03-23T04:25:10;5.18;;;1.60;;
10761;SDS011;5433;50.862;4.320;2023-03-23T04:27:37;7.13;;;1.80;;
10761;SDS011;5433;50.862;4.320;2023-03-23T04:30:03;5.97;;;1.45;;
10761;SDS011;5433;50.862;4.320;2023-03-23T04:32:30;3.22;;;1.60;;
10761;SDS011;5433;50.862;4.320;2023-03-23T04:34:56;3.55;;;1.50;;
10761;SDS011;5433;50.862;4.320;2023-03-23T04:37:26;6.63;;;1.70;;
10761;SDS011;5433;50.862;4.320;2023-03-23T04:39:57;6.40;;;1.60;;
10761;SDS011;5433;50.862;4.320;2023-03-23T04:42:30;4.30;;;1.60;;
10761;SDS011;5433;50.862;4.320;2023-03-23T04:44:56;3.33;;;1.65;;
10761;SDS011;5433;50.862;4.320;2023-03-23T04:47:24;3.78;;;1.40;;
10761;SDS011;5433;50.862;4.320;2023-03-23T04:49:54;4.53;;;1.58;;
10761;SDS011;5433;50.862;4.320;2023-03-23T04:52:21;3.70;;;1.42;;
10761;SDS011;5433;50.862;4.320;2023-03-23T04:54:47;3.90;;;1.40;;
10761;SDS011;5433;50.862;4.320;2023-03-23T04:57:13;4.25;;;1.35;;
10761;SDS011;5433;50.862;4.320;2023-03-23T04:59:40;4.05;;;1.60;;
10761;SDS011;5433;50.862;4.320;2023-03-23T05:02:06;2.97;;;1.52;;
10761;SDS011;5433;50.862;4.320;2023-03-23T05:04:32;4.78;;;1.38;;
10761;SDS011;5433;50.862;4.320;2023-03-23T05:06:58;7.25;;;1.67;;
10761;SDS011;5433;50.862;4.320;2023-03-23T05:09:24;3.97;;;1.30;;
10761;SDS011;5433;50.862;4.320;2023-03-23T05:11:50;2.90;;;1.20;;
10761;SDS011;5433;50.862;4.320;2023-03-23T05:14:16;5.13;;;1.50;;
10761;SDS011;5433;50.862;4.320;2023-03-23T05:16:42;4.10;;;1.23;;
10761;SDS011;5433;50.862;4.320;2023-03-23T05:19:13;3.85;;;1.15;;
10761;SDS011;5433;50.862;4.320;2023-03-23T05:21:39;7.20;;;1.98;;
10761;SDS011;5433;50.862;4.320;2023-03-23T05:24:05;2.80;;;1.45;;
10761;SDS011;5433;50.862;4.320;2023-03-23T05:26:31;3.20;;;1.52;;
10761;SDS011;5433;50.862;4.320;2023-03-23T05:28:57;3.20;;;1.40;;
10761;SDS011;5433;50.862;4.320;2023-03-23T05:31:24;3.67;;;1.40;;
10761;SDS011;5433;50.862;4.320;2023-03-23T05:33:50;4.20;;;1.55;;
10761;SDS011;5433;50.862;4.320;2023-03-23T05:36:17;3.03;;;1.20;;
10761;SDS011;5433;50.862;4.320;2023-03-23T05:38:43;3.30;;;1.23;;
10761;SDS011;5433;50.862;4.320;2023-03-23T05:41:12;3.40;;;1.58;;
10761;SDS011;5433;50.862;4.320;2023-03-23T05:43:38;4.07;;;1.40;;
10761;SDS011;5433;50.862;4.320;2023-03-23T05:46:04;4.20;;;1.55;;
10761;SDS011;5433;50.862;4.320;2023-03-23T05:48:31;2.95;;;1.30;;
10761;SDS011;5433;50.862;4.320;2023-03-23T05:50:58;5.90;;;1.73;;
10761;SDS011;5433;50.862;4.320;2023-03-23T05:53:24;4.72;;;1.48;;
10761;SDS011;5433;50.862;4.320;2023-03-23T05:55:50;4.32;;;1.40;;
10761;SDS011;5433;50.862;4.320;2023-03-23T05:58:17;6.80;;;1.50;;
10761;SDS011;5433;50.862;4.320;2023-03-23T06:00:43;3.95;;;1.50;;
10761;SDS011;5433;50.862;4.320;2023-03-23T06:03:10;3.08;;;1.40;;
10761;SDS011;5433;50.862;4.320;2023-03-23T06:05:41;5.15;;;1.60;;
10761;SDS011;5433;50.862;4.320;2023-03-23T06:08:08;3.22;;;1.30;;
10761;SDS011;5433;50.862;4.320;2023-03-23T06:10:34;4.45;;;1.60;;
10761;SDS011;5433;50.862;4.320;2023-03-23T06:13:01;5.28;;;1.50;;
10761;SDS011;5433;50.862;4.320;2023-03-23T06:15:27;4.90;;;1.60;;
10761;SDS011;5433;50.862;4.320;2023-03-23T06:17:58;4.20;;;1.70;;
10761;SDS011;5433;50.862;4.320;2023-03-23T06:20:24;5.32;;;1.52;;
10761;SDS011;5433;50.862;4.320;2023-03-23T06:22:50;5.65;;;1.50;;
10761;SDS011;5433;50.862;4.320;2023-03-23T06:25:17;4.18;;;1.67;;
10761;SDS011;5433;50.862;4.320;2023-03-23T06:27:44;5.20;;;1.80;;
10761;SDS011;5433;50.862;4.320;2023-03-23T06:30:11;6.25;;;1.70;;
10761;SDS011;5433;50.862;4.320;2023-03-23T06:32:39;4.30;;;1.50;;
10761;SDS011;5433;50.862;4.320;2023-03-23T06:35:06;4.72;;;1.52;;
10761;SDS011;5433;50.862;4.320;2023-03-23T06:37:34;5.00;;;1.80;;
10761;SDS011;5433;50.862;4.320;2023-03-23T06:40:00;6.03;;;2.15;;
10761;SDS011;5433;50.862;4.320;2023-03-23T06:42:28;5.43;;;1.63;;
10761;SDS011;5433;50.862;4.320;2023-03-23T06:44:54;4.30;;;1.58;;
10761;SDS011;5433;50.862;4.320;2023-03-23T06:47:22;4.63;;;1.60;;
10761;SDS011;5433;50.862;4.320;2023-03-23T06:49:48;6.70;;;1.60;;
10761;SDS011;5433;50.862;4.320;2023-03-23T06:52:14;4.95;;;1.60;;
10761;SDS011;5433;50.862;4.320;2023-03-23T06:54:40;4.63;;;1.65;;
10761;SDS011;5433;50.862;4.320;2023-03-23T06:57:07;5.07;;;1.77;;
10761;SDS011;5433;50.862;4.320;2023-03-23T06:59:33;5.28;;;1.70;;
10761;SDS011;5433;50.862;4.320;2023-03-23T07:01:59;2.30;;;0.90;;
10761;SDS011;5433;50.862;4.320;2023-03-23T07:04:25;5.63;;;1.20;;
10761;SDS011;5433;50.862;4.320;2023-03-23T07:06:51;3.40;;;0.98;;
10761;SDS011;5433;50.862;4.320;2023-03-23T07:09:17;3.30;;;1.00;;
10761;SDS011;5433;50.862;4.320;2023-03-23T07:11:44;2.92;;;0.90;;
10761;SDS011;5433;50.862;4.320;2023-03-23T07:14:12;1.05;;;0.70;;
10761;SDS011;5433;50.862;4.320;2023-03-23T07:16:38;2.33;;;0.73;;
10761;SDS011;5433;50.862;4.320;2023-03-23T07:19:04;2.53;;;0.90;;
10761;SDS011;5433;50.862;4.320;2023-03-23T07:21:31;2.00;;;0.70;;
10761;SDS011;5433;50.862;4.320;2023-03-23T07:23:57;2.60;;;1.00;;
10761;SDS011;5433;50.862;4.320;2023-03-23T07:26:23;3.60;;;1.10;;
10761;SDS011;5433;50.862;4.320;2023-03-23T07:28:49;3.13;;;1.10;;
10761;SDS011;5433;50.862;4.320;2023-03-23T07:31:15;6.47;;;1.38;;
10761;SDS011;5433;50.862;4.320;2023-03-23T07:33:41;4.57;;;1.60;;
10761;SDS011;5433;50.862;4.320;2023-03-23T07:36:08;5.38;;;1.33;;
10761;SDS011;5433;50.862;4.320;2023-03-23T07:38:35;2.08;;;1.38;;
10761;SDS011;5433;50.862;4.320;2023-03-23T07:41:01;3.55;;;1.58;;
10761;SDS011;5433;50.862;4.320;2023-03-23T07:43:28;3.03;;;1.60;;
10761;SDS011;5433;50.862;4.320;2023-03-23T07:45:54;7.30;;;1.88;;
10761;SDS011;5433;50.862;4.320;2023-03-23T07:48:21;4.75;;;2.00;;
10761;SDS011;5433;50.862;4.320;2023-03-23T07:50:48;5.93;;;2.17;;
10761;SDS011;5433;50.862;4.320;2023-03-23T07:53:14;6.55;;;1.98;;
10761;SDS011;5433;50.862;4.320;2023-03-23T07:55:40;5.93;;;1.80;;
10761;SDS011;5433;50.862;4.320;2023-03-23T07:58:06;4.60;;;2.13;;
10761;SDS011;5433;50.862;4.320;2023-03-23T08:00:33;6.57;;;2.00;;
10761;SDS011;5433;50.862;4.320;2023-03-23T08:02:59;4.03;;;2.08;;
10761;SDS011;5433;50.862;4.320;2023-03-23T08:05:27;4.80;;;2.08;;
10761;SDS011;5433;50.862;4.320;2023-03-23T08:07:54;4.50;;;2.20;;
10761;SDS011;5433;50.862;4.320;2023-03-23T08:10:20;4.00;;;2.03;;
10761;SDS011;5433;50.862;4.320;2023-03-23T08:12:50;5.25;;;1.88;;
10761;SDS011;5433;50.862;4.320;2023-03-23T08:15:16;5.00;;;1.92;;
10761;SDS011;5433;50.862;4.320;2023-03-23T08:17:43;7.07;;;2.10;;
10761;SDS011;5433;50.862;4.320;2023-03-23T08:20:10;3.50;;;1.50;;
10761;SDS011;5433;50.862;4.320;2023-03-23T08:22:42;6.40;;;1.40;;
10761;SDS011;5433;50.862;4.320;2023-03-23T08:25:10;3.55;;;1.38;;
10761;SDS011;5433;50.862;4.320;2023-03-23T08:27:36;6.75;;;1.20;;
10761;SDS011;5433;50.862;4.320;2023-03-23T08:30:05;3.30;;;1.10;;
10761;SDS011;5433;50.862;4.320;2023-03-23T08:32:32;2.90;;;1.10;;
10761;SDS011;5433;50.862;4.320;2023-03-23T08:34:59;4.47;;;1.40;;
10761;SDS011;5433;50.862;4.320;2023-03-23T08:37:25;3.67;;;1.00;;
10761;SDS011;5433;50.862;4.320;2023-03-23T08:39:54;2.92;;;1.23;;
10761;SDS011;5433;50.862;4.320;2023-03-23T08:42:22;2.42;;;1.20;;
10761;SDS011;5433;50.862;4.320;2023-03-23T08:44:48;3.42;;;1.27;;
10761;SDS011;5433;50.862;4.320;2023-03-23T08:47:14;4.35;;;1.30;;
10761;SDS011;5433;50.862;4.320;2023-03-23T08:49:41;3.97;;;1.17;;
10761;SDS011;5433;50.862;4.320;2023-03-23T08:52:07;3.45;;;1.40;;
10761;SDS011;5433;50.862;4.320;2023-03-23T08:54:33;3.15;;;1.33;;
10761;SDS011;5433;50.862;4.320;2023-03-23T08:56:59;5.50;;;1.50;;
10761;SDS011;5433;50.862;4.320;2023-03-23T08:59:25;4.75;;;1.50;;
10761;SDS011;5433;50.862;4.320;2023-03-23T09:01:52;3.90;;;1.33;;
10761;SDS011;5433;50.862;4.320;2023-03-23T09:04:18;4.03;;;1.30;;
10761;SDS011;5433;50.862;4.320;2023-03-23T09:06:44;3.55;;;1.88;;
10761;SDS011;5433;50.862;4.320;2023-03-23T09:09:11;3.17;;;1.90;;
10761;SDS011;5433;50.862;4.320;2023-03-23T09:11:37;4.05;;;1.70;;
10761;SDS011;5433;50.862;4.320;2023-03-23T09:14:04;5.57;;;1.70;;
10761;SDS011;5433;50.862;4.320;2023-03-23T09:16:31;4.00;;;1.77;;
10761;SDS011;5433;50.862;4.320;2023-03-23T09:18:57;2.33;;;1.48;;
10761;SDS011;5433;50.862;4.320;2023-03-23T09:21:24;5.22;;;1.60;;
10761;SDS011;5433;50.862;4.320;2023-03-23T09:23:50;4.63;;;1.70;;
10761;SDS011;5433;50.862;4.320;2023-03-23T09:26:16;2.63;;;1.63;;
10761;SDS011;5433;50.862;4.320;2023-03-23T09:28:42;3.13;;;1.55;;
10761;SDS011;5433;50.862;4.320;2023-03-23T09:31:10;2.67;;;1.38;;
10761;SDS011;5433;50.862;4.320;2023-03-23T09:33:36;2.38;;;1.30;;
10761;SDS011;5433;50.862;4.320;2023-03-23T09:36:02;2.83;;;1.40;;
10761;SDS011;5433;50.862;4.320;2023-03-23T09:38:30;2.97;;;1.42;;
10761;SDS011;5433;50.862;4.320;2023-03-23T09:48:48;1.38;;;1.20;;
10761;SDS011;5433;50.862;4.320;2023-03-23T09:53:42;3.45;;;1.60;;
10761;SDS011;5433;50.862;4.320;2023-03-23T09:56:13;2.63;;;1.55;;
10761;SDS011;5433;50.862;4.320;2023-03-23T09:59:16;2.65;;;1.80;;
10761;SDS011;5433;50.862;4.320;2023-03-23T10:01:35;2.95;;;1.52;;
10761;SDS011;5433;50.862;4.320;2023-03-23T10:04:04;3.35;;;1.50;;
10761;SDS011;5433;50.862;4.320;2023-03-23T10:06:31;2.85;;;1.40;;
10761;SDS011;5433;50.862;4.320;2023-03-23T10:08:58;2.00;;;1.60;;
10761;SDS011;5433;50.862;4.320;2023-03-23T10:14:14;5.20;;;1.75;;
10761;SDS011;5433;50.862;4.320;2023-03-23T10:19:33;1.67;;;1.42;;
10761;SDS011;5433;50.862;4.320;2023-03-23T10:22:05;2.22;;;1.50;;
10761;SDS011;5433;50.862;4.320;2023-03-23T10:24:35;2.95;;;1.63;;
10761;SDS011;5433;50.862;4.320;2023-03-23T10:29:52;4.13;;;1.60;;
10761;SDS011;5433;50.862;4.320;2023-03-23T10:32:22;3.53;;;1.83;;
10761;SDS011;5433;50.862;4.320;2023-03-23T10:34:50;3.10;;;1.80;;
10761;SDS011;5433;50.862;4.320;2023-03-23T10:39:57;5.30;;;2.10;;
10761;SDS011;5433;50.862;4.320;2023-03-23T10:42:29;4.53;;;2.00;;
10761;SDS011;5433;50.862;4.320;2023-03-23T10:44:57;4.68;;;1.98;;
10761;SDS011;5433;50.862;4.320;2023-03-23T10:47:24;3.15;;;1.92;;
10761;SDS011;5433;50.862;4.320;2023-03-23T10:49:56;3.45;;;1.83;;
10761;SDS011;5433;50.862;4.320;2023-03-23T10:55:02;4.22;;;1.80;;
10761;SDS011;5433;50.862;4.320;2023-03-23T10:57:30;3.55;;;1.85;;
10761;SDS011;5433;50.862;4.320;2023-03-23T11:00:39;6.47;;;2.30;;
10761;SDS011;5433;50.862;4.320;2023-03-23T11:02:47;5.88;;;2.10;;
10761;SDS011;5433;50.862;4.320;2023-03-23T11:05:23;4.40;;;2.08;;
10761;SDS011;5433;50.862;4.320;2023-03-23T11:07:51;5.47;;;2.10;;
10761;SDS011;5433;50.862;4.320;2023-03-23T11:10:21;6.85;;;2.30;;
10761;SDS011;5433;50.862;4.320;2023-03-23T11:12:47;4.97;;;2.58;;
10761;SDS011;5433;50.862;4.320;2023-03-23T11:15:22;5.43;;;2.10;;
10761;SDS011;5433;50.862;4.320;2023-03-23T11:17:55;6.50;;;2.30;;
10761;SDS011;5433;50.862;4.320;2023-03-23T11:20:23;5.00;;;2.20;;
10761;SDS011;5433;50.862;4.320;2023-03-23T11:22:49;3.92;;;1.80;;
10761;SDS011;5433;50.862;4.320;2023-03-23T11:25:15;4.63;;;2.15;;
10761;SDS011;5433;50.862;4.320;2023-03-23T11:27:41;6.72;;;2.40;;
10761;SDS011;5433;50.862;4.320;2023-03-23T11:30:19;6.57;;;2.25;;
10761;SDS011;5433;50.862;4.320;2023-03-23T11:32:47;5.95;;;2.33;;
10761;SDS011;5433;50.862;4.320;2023-03-23T11:35:18;4.65;;;2.05;;
10761;SDS011;5433;50.862;4.320;2023-03-23T11:37:49;7.95;;;2.40;;
10761;SDS011;5433;50.862;4.320;2023-03-23T11:40:18;6.03;;;2.50;;
10761;SDS011;5433;50.862;4.320;2023-03-23T11:42:46;6.18;;;1.90;;
10761;SDS011;5433;50.862;4.320;2023-03-23T11:47:50;5.43;;;1.90;;
10761;SDS011;5433;50.862;4.320;2023-03-23T11:50:24;6.53;;;2.10;;
10761;SDS011;5433;50.862;4.320;2023-03-23T11:55:26;6.38;;;1.77;;
10761;SDS011;5433;50.862;4.320;2023-03-23T11:57:52;6.15;;;2.10;;
10761;SDS011;5433;50.862;4.320;2023-03-23T12:00:20;5.50;;;1.95;;
10761;SDS011;5433;50.862;4.320;2023-03-23T12:02:58;5.28;;;1.90;;
10761;SDS011;5433;50.862;4.320;2023-03-23T12:05:34;3.67;;;1.88;;
10761;SDS011;5433;50.862;4.320;2023-03-23T12:08:07;5.55;;;1.50;;
10761;SDS011;5433;50.862;4.320;2023-03-23T12:16:01;5.40;;;1.90;;
10761;SDS011;5433;50.862;4.320;2023-03-23T12:23:46;4.13;;;2.03;;
10761;SDS011;5433;50.862;4.320;2023-03-23T12:34:05;9.77;;;2.33;;
10761;SDS011;5433;50.862;4.320;2023-03-23T12:41:50;7.53;;;1.80;;
10761;SDS011;5433;50.862;4.320;2023-03-23T12:44:21;7.07;;;1.73;;
10761;SDS011;5433;50.862;4.320;2023-03-23T12:51:59;5.28;;;1.75;;
10761;SDS011;5433;50.862;4.320;2023-03-23T12:55:02;5.93;;;2.00;;
10761;SDS011;5433;50.862;4.320;2023-03-23T13:02:39;6.43;;;2.00;;
10761;SDS011;5433;50.862;4.320;2023-03-23T13:05:24;6.25;;;2.20;;
10761;SDS011;5433;50.862;4.320;2023-03-23T13:07:53;4.05;;;2.10;;
10761;SDS011;5433;50.862;4.320;2023-03-23T13:10:22;6.80;;;2.42;;
10761;SDS011;5433;50.862;4.320;2023-03-23T13:12:52;6.60;;;2.17;;
10761;SDS011;5433;50.862;4.320;2023-03-23T13:18:08;4.70;;;1.77;;
10761;SDS011;5433;50.862;4.320;2023-03-23T13:20:39;3.75;;;1.70;;
10761;SDS011;5433;50.862;4.320;2023-03-23T13:23:12;7.38;;;2.30;;
10761;SDS011;5433;50.862;4.320;2023-03-23T13:25:51;4.47;;;1.90;;
10761;SDS011;5433;50.862;4.320;2023-03-23T13:28:19;4.03;;;1.75;;
10761;SDS011;5433;50.862;4.320;2023-03-23T13:30:54;5.85;;;1.83;;
10761;SDS011;5433;50.862;4.320;2023-03-23T13:33:20;5.75;;;2.10;;
10761;SDS011;5433;50.862;4.320;2023-03-23T13:35:46;6.22;;;1.80;;
10761;SDS011;5433;50.862;4.320;2023-03-23T13:38:23;7.55;;;2.00;;
10761;SDS011;5433;50.862;4.320;2023-03-23T13:40:49;8.13;;;2.15;;
10761;SDS011;5433;50.862;4.320;2023-03-23T13:43:32;4.93;;;1.92;;
10761;SDS011;5433;50.862;4.320;2023-03-23T13:46:12;8.48;;;2.42;;
10761;SDS011;5433;50.862;4.320;2023-03-23T13:48:43;6.35;;;2.25;;
10761;SDS011;5433;50.862;4.320;2023-03-23T13:56:57;7.35;;;2.20;;
10761;SDS011;5433;50.862;4.320;2023-03-23T14:01:53;6.07;;;2.30;;
10761;SDS011;5433;50.862;4.320;2023-03-23T14:04:19;7.35;;;2.05;;
10761;SDS011;5433;50.862;4.320;2023-03-23T14:06:46;6.00;;;2.15;;
10761;SDS011;5433;50.862;4.320;2023-03-23T14:09:15;9.57;;;2.40;;
10761;SDS011;5433;50.862;4.320;2023-03-23T14:11:49;6.40;;;1.80;;
10761;SDS011;5433;50.862;4.320;2023-03-23T14:14:39;3.90;;;1.85;;
10761;SDS011;5433;50.862;4.320;2023-03-23T14:17:07;7.28;;;2.38;;
10761;SDS011;5433;50.862;4.320;2023-03-23T14:19:36;8.23;;;2.33;;
10761;SDS011;5433;50.862;4.320;2023-03-23T14:22:03;5.85;;;2.08;;
10761;SDS011;5433;50.862;4.320;2023-03-23T14:24:33;5.38;;;2.03;;
10761;SDS011;5433;50.862;4.320;2023-03-23T14:27:11;7.28;;;2.30;;
10761;SDS011;5433;50.862;4.320;2023-03-23T14:29:37;8.25;;;2.03;;
10761;SDS011;5433;50.862;4.320;2023-03-23T14:32:05;8.15;;;2.58;;
10761;SDS011;5433;50.862;4.320;2023-03-23T14:34:32;6.20;;;2.20;;
10761;SDS011;5433;50.862;4.320;2023-03-23T14:36:58;11.13;;;2.10;;
10761;SDS011;5433;50.862;4.320;2023-03-23T14:39:26;7.75;;;2.38;;
10761;SDS011;5433;50.862;4.320;2023-03-23T14:42:00;8.38;;;2.33;;
10761;SDS011;5433;50.862;4.320;2023-03-23T14:44:29;5.63;;;2.03;;
10761;SDS011;5433;50.862;4.320;2023-03-23T14:46:55;8.02;;;2.10;;
10761;SDS011;5433;50.862;4.320;2023-03-23T14:49:30;7.13;;;1.90;;
10761;SDS011;5433;50.862;4.320;2023-03-23T14:51:57;5.30;;;1.63;;
10761;SDS011;5433;50.862;4.320;2023-03-23T14:54:27;4.55;;;1.67;;
10761;SDS011;5433;50.862;4.320;2023-03-23T14:56:54;3.85;;;1.67;;
10761;SDS011;5433;50.862;4.320;2023-03-23T14:59:21;7.25;;;2.10;;
10761;SDS011;5433;50.862;4.320;2023-03-23T15:01:47;6.28;;;2.10;;
10761;SDS011;5433;50.862;4.320;2023-03-23T15:04:19;8.90;;;2.10;;
10761;SDS011;5433;50.862;4.320;2023-03-23T15:06:51;5.82;;;1.90;;
10761;SDS011;5433;50.862;4.320;2023-03-23T15:09:20;7.40;;;2.38;;
10761;SDS011;5433;50.862;4.320;2023-03-23T15:11:57;6.07;;;2.05;;
10761;SDS011;5433;50.862;4.320;2023-03-23T15:14:32;5.30;;;2.22;;
10761;SDS011;5433;50.862;4.320;2023-03-23T15:16:59;6.70;;;2.47;;
10761;SDS011;5433;50.862;4.320;2023-03-23T15:19:32;7.13;;;2.22;;
10761;SDS011;5433;50.862;4.320;2023-03-23T15:24:41;8.27;;;2.05;;
10761;SDS011;5433;50.862;4.320;2023-03-23T15:27:15;6.43;;;2.15;;
10761;SDS011;5433;50.862;4.320;2023-03-23T15:30:11;7.35;;;2.58;;
10761;SDS011;5433;50.862;4.320;2023-03-23T15:32:31;9.57;;;2.65;;
10761;SDS011;5433;50.862;4.320;2023-03-23T15:35:04;7.68;;;2.85;;
10761;SDS011;5433;50.862;4.320;2023-03-23T15:37:31;10.07;;;3.10;;
10761;SDS011;5433;50.862;4.320;2023-03-23T15:39:58;7.82;;;3.22;;
10761;SDS011;5433;50.862;4.320;2023-03-23T15:47:22;7.57;;;3.95;;
10761;SDS011;5433;50.862;4.320;2023-03-23T15:50:01;9.00;;;3.20;;
10761;SDS011;5433;50.862;4.320;2023-03-23T15:52:28;8.18;;;3.15;;
10761;SDS011;5433;50.862;4.320;2023-03-23T15:54:54;8.90;;;3.17;;
10761;SDS011;5433;50.862;4.320;2023-03-23T15:57:20;7.45;;;2.88;;
10761;SDS011;5433;50.862;4.320;2023-03-23T15:59:46;7.03;;;2.88;;
10761;SDS011;5433;50.862;4.320;2023-03-23T16:02:15;10.02;;;3.05;;
10761;SDS011;5433;50.862;4.320;2023-03-23T16:04:42;5.75;;;2.55;;
10761;SDS011;5433;50.862;4.320;2023-03-23T16:07:08;7.60;;;2.35;;
10761;SDS011;5433;50.862;4.320;2023-03-23T16:09:37;6.82;;;2.45;;
10761;SDS011;5433;50.862;4.320;2023-03-23T16:12:09;7.28;;;1.98;;
10761;SDS011;5433;50.862;4.320;2023-03-23T16:14:37;6.10;;;2.10;;
10761;SDS011;5433;50.862;4.320;2023-03-23T16:17:03;4.80;;;1.60;;
10761;SDS011;5433;50.862;4.320;2023-03-23T16:19:29;4.93;;;1.63;;
10761;SDS011;5433;50.862;4.320;2023-03-23T16:21:55;5.53;;;1.90;;
10761;SDS011;5433;50.862;4.320;2023-03-23T16:24:21;8.73;;;2.03;;
10761;SDS011;5433;50.862;4.320;2023-03-23T16:26:47;7.20;;;2.08;;
10761;SDS011;5433;50.862;4.320;2023-03-23T16:29:14;7.70;;;2.00;;
10761;SDS011;5433;50.862;4.320;2023-03-23T16:31:43;6.50;;;1.85;;
10761;SDS011;5433;50.862;4.320;2023-03-23T16:34:12;5.38;;;1.70;;
10761;SDS011;5433;50.862;4.320;2023-03-23T16:37:02;5.38;;;1.73;;
10761;SDS011;5433;50.862;4.320;2023-03-23T16:39:30;6.43;;;2.10;;
10761;SDS011;5433;50.862;4.320;2023-03-23T16:41:56;6.68;;;2.92;;
10761;SDS011;5433;50.862;4.320;2023-03-23T16:44:22;6.60;;;2.85;;
10761;SDS011;5433;50.862;4.320;2023-03-23T16:46:48;8.90;;;3.53;;
10761;SDS011;5433;50.862;4.320;2023-03-23T16:49:14;10.23;;;4.07;;
10761;SDS011;5433;50.862;4.320;2023-03-23T16:51:40;12.48;;;4.65;;
10761;SDS011;5433;50.862;4.320;2023-03-23T16:54:06;10.43;;;4.88;;